UAE30V OMDB-OOMS
Flight info
| Callsign | UAE30V |
|---|---|
| Flight time | 0h 39m |
| Altitude | 23000 |
| Route | ANVIX L223 TARDI N629 MUSUK T511 MCT |
| Aircraft | B77W/H-SDE1E2E3FGHIJ2J3J4J5M1RWXY/LB1D1 |
Departure
| Time | 2026-04-26 08:55 |
|---|---|
| Airport | Dubai International Airport (OMDB) |
Arrival
| Time | 2026-04-26 09:35 |
|---|---|
| Airport | Muscat International Airport (OOMS) |
| Time | Latitude | Longitude | Altitude | Speed | Heading |
|---|---|---|---|---|---|
| 2026-04-26 08:08 | 25.24844 | 55.36373 | 76 ft | 0 kts | 211° |
| 2026-04-26 08:37 | 25.24844 | 55.36374 | 76 ft | 0 kts | 211° |
| 2026-04-26 08:37 | 25.24856 | 55.36382 | 76 ft | 2 kts | 211° |
| 2026-04-26 08:38 | 25.24869 | 55.36390 | 76 ft | 2 kts | 211° |
| 2026-04-26 08:38 | 25.24882 | 55.36399 | 76 ft | 2 kts | 211° |
| 2026-04-26 08:38 | 25.24895 | 55.36408 | 76 ft | 2 kts | 227° |
| 2026-04-26 08:38 | 25.24903 | 55.36422 | 76 ft | 2 kts | 251° |
| 2026-04-26 08:39 | 25.24906 | 55.36438 | 76 ft | 2 kts | 270° |
| 2026-04-26 08:39 | 25.24904 | 55.36454 | 76 ft | 2 kts | 290° |
| 2026-04-26 08:39 | 25.24900 | 55.36463 | 76 ft | 1 kts | 302° |
| 2026-04-26 08:39 | 25.24899 | 55.36466 | 76 ft | 0 kts | 302° |
| 2026-04-26 08:46 | 25.24904 | 55.36457 | 76 ft | 5 kts | 302° |
| 2026-04-26 08:47 | 25.24943 | 55.36415 | 76 ft | 8 kts | 332° |
| 2026-04-26 08:47 | 25.25005 | 55.36380 | 76 ft | 13 kts | 333° |
| 2026-04-26 08:47 | 25.25096 | 55.36292 | 76 ft | 22 kts | 298° |
| 2026-04-26 08:47 | 25.25188 | 55.36128 | 76 ft | 25 kts | 303° |
| 2026-04-26 08:48 | 25.25281 | 55.35960 | 76 ft | 29 kts | 301° |
| 2026-04-26 08:48 | 25.25376 | 55.35788 | 76 ft | 15 kts | 302° |
| 2026-04-26 08:48 | 25.25430 | 55.35690 | 76 ft | 15 kts | 301° |
| 2026-04-26 08:48 | 25.25489 | 55.35585 | 76 ft | 15 kts | 302° |
| 2026-04-26 08:49 | 25.25544 | 55.35486 | 76 ft | 14 kts | 300° |
| 2026-04-26 08:49 | 25.25599 | 55.35384 | 76 ft | 15 kts | 301° |
| 2026-04-26 08:49 | 25.25653 | 55.35286 | 76 ft | 14 kts | 301° |
| 2026-04-26 08:49 | 25.25709 | 55.35204 | 76 ft | 11 kts | 339° |
| 2026-04-26 08:50 | 25.25780 | 55.35229 | 76 ft | 10 kts | 30° |
| 2026-04-26 08:50 | 25.25842 | 55.35270 | 76 ft | 10 kts | 32° |
| 2026-04-26 08:50 | 25.25901 | 55.35310 | 76 ft | 9 kts | 32° |
| 2026-04-26 08:50 | 25.25958 | 55.35348 | 76 ft | 9 kts | 32° |
| 2026-04-26 08:51 | 25.25996 | 55.35376 | 76 ft | 5 kts | 38° |
| 2026-04-26 08:51 | 25.26032 | 55.35426 | 76 ft | 9 kts | 88° |
| 2026-04-26 08:51 | 25.25990 | 55.35523 | 76 ft | 18 kts | 121° |
| 2026-04-26 08:52 | 25.25924 | 55.35643 | 76 ft | 17 kts | 121° |
| 2026-04-26 08:52 | 25.25859 | 55.35759 | 76 ft | 17 kts | 122° |
| 2026-04-26 08:52 | 25.25789 | 55.35887 | 76 ft | 21 kts | 122° |
| 2026-04-26 08:52 | 25.25701 | 55.36044 | 76 ft | 25 kts | 121° |
| 2026-04-26 08:53 | 25.25624 | 55.36182 | 76 ft | 19 kts | 122° |
| 2026-04-26 08:53 | 25.25552 | 55.36310 | 76 ft | 21 kts | 121° |
| 2026-04-26 08:53 | 25.25470 | 55.36460 | 76 ft | 23 kts | 122° |
| 2026-04-26 08:53 | 25.25386 | 55.36607 | 76 ft | 21 kts | 122° |
| 2026-04-26 08:54 | 25.25313 | 55.36743 | 76 ft | 18 kts | 115° |
| 2026-04-26 08:54 | 25.25347 | 55.36801 | 76 ft | 11 kts | 7° |
| 2026-04-26 08:54 | 25.25437 | 55.36763 | 76 ft | 19 kts | 326° |
| 2026-04-26 08:54 | 25.25691 | 55.36414 | 76 ft | 105 kts | 303° |
| 2026-04-26 08:55 | 25.26232 | 55.35465 | 167 ft | 178 kts | 302° |
| 2026-04-26 08:55 | 25.26871 | 55.34358 | 1261 ft | 176 kts | 302° |
| 2026-04-26 08:55 | 25.27549 | 55.33222 | 2389 ft | 186 kts | 305° |
| 2026-04-26 08:55 | 25.28255 | 55.32089 | 3625 ft | 188 kts | 310° |
| 2026-04-26 08:56 | 25.29146 | 55.31000 | 4651 ft | 206 kts | 309° |
| 2026-04-26 08:56 | 25.29622 | 55.30087 | 5345 ft | 215 kts | 288° |
| 2026-04-26 08:56 | 25.29767 | 55.27961 | 6938 ft | 229 kts | 261° |
| 2026-04-26 08:56 | 25.29314 | 55.26196 | 7858 ft | 254 kts | 250° |
| 2026-04-26 08:57 | 25.28569 | 55.24415 | 9035 ft | 271 kts | 238° |
| 2026-04-26 08:57 | 25.27209 | 55.22729 | 9535 ft | 316 kts | 226° |
| 2026-04-26 08:57 | 25.25837 | 55.20719 | 9982 ft | 319 kts | 241° |
| 2026-04-26 08:57 | 25.24625 | 55.18840 | 10478 ft | 285 kts | 223° |
| 2026-04-26 08:58 | 25.23037 | 55.17717 | 10967 ft | 270 kts | 204° |
| 2026-04-26 08:58 | 25.21222 | 55.17191 | 11499 ft | 271 kts | 189° |
| 2026-04-26 08:58 | 25.19306 | 55.17302 | 12052 ft | 289 kts | 165° |
| 2026-04-26 08:58 | 25.17502 | 55.18395 | 12626 ft | 308 kts | 139° |
| 2026-04-26 08:59 | 25.16240 | 55.20387 | 13214 ft | 327 kts | 114° |
| 2026-04-26 08:59 | 25.15402 | 55.22776 | 13822 ft | 342 kts | 113° |
| 2026-04-26 08:59 | 25.14432 | 55.25200 | 14411 ft | 358 kts | 117° |
| 2026-04-26 08:59 | 25.13295 | 55.27729 | 15017 ft | 373 kts | 118° |
| 2026-04-26 09:00 | 25.12088 | 55.30307 | 15617 ft | 388 kts | 119° |
| 2026-04-26 09:00 | 25.10823 | 55.32976 | 16209 ft | 399 kts | 119° |
| 2026-04-26 09:00 | 25.09602 | 55.35741 | 16792 ft | 406 kts | 116° |
| 2026-04-26 09:00 | 25.08451 | 55.38600 | 17367 ft | 409 kts | 115° |
| 2026-04-26 09:01 | 25.07288 | 55.41479 | 17958 ft | 414 kts | 116° |
| 2026-04-26 09:01 | 25.06147 | 55.44404 | 18541 ft | 419 kts | 114° |
| 2026-04-26 09:01 | 25.05026 | 55.47363 | 19122 ft | 423 kts | 114° |
| 2026-04-26 09:01 | 25.03870 | 55.50400 | 19724 ft | 428 kts | 114° |
| 2026-04-26 09:02 | 25.02713 | 55.53431 | 20327 ft | 431 kts | 115° |
| 2026-04-26 09:02 | 25.01411 | 55.56381 | 20927 ft | 434 kts | 122° |
| 2026-04-26 09:02 | 24.99876 | 55.59276 | 21529 ft | 439 kts | 123° |
| 2026-04-26 09:02 | 24.98320 | 55.62164 | 22131 ft | 444 kts | 123° |
| 2026-04-26 09:03 | 24.96726 | 55.65119 | 22748 ft | 450 kts | 124° |
| 2026-04-26 09:03 | 24.95126 | 55.68079 | 22966 ft | 453 kts | 123° |
| 2026-04-26 09:03 | 24.93422 | 55.70970 | 22995 ft | 450 kts | 129° |
| 2026-04-26 09:03 | 24.91577 | 55.73779 | 22983 ft | 449 kts | 129° |
| 2026-04-26 09:04 | 24.89757 | 55.76527 | 22937 ft | 453 kts | 129° |
| 2026-04-26 09:04 | 24.87843 | 55.79409 | 22945 ft | 474 kts | 129° |
| 2026-04-26 09:04 | 24.85875 | 55.82371 | 22953 ft | 493 kts | 129° |
| 2026-04-26 09:04 | 24.83814 | 55.85474 | 22959 ft | 500 kts | 129° |
| 2026-04-26 09:05 | 24.81747 | 55.88542 | 22974 ft | 502 kts | 129° |
| 2026-04-26 09:05 | 24.79667 | 55.91610 | 22979 ft | 501 kts | 130° |
| 2026-04-26 09:05 | 24.77406 | 55.94471 | 23000 ft | 496 kts | 138° |
| 2026-04-26 09:05 | 24.74898 | 55.97122 | 23015 ft | 496 kts | 140° |
| 2026-04-26 09:06 | 24.72404 | 55.99704 | 23031 ft | 494 kts | 140° |
| 2026-04-26 09:06 | 24.69865 | 56.02324 | 23026 ft | 498 kts | 140° |
| 2026-04-26 09:06 | 24.67357 | 56.04911 | 23013 ft | 496 kts | 140° |
| 2026-04-26 09:06 | 24.64824 | 56.07524 | 23012 ft | 495 kts | 139° |
| 2026-04-26 09:07 | 24.62305 | 56.10121 | 23016 ft | 497 kts | 140° |
| 2026-04-26 09:07 | 24.59787 | 56.12714 | 23017 ft | 496 kts | 140° |
| 2026-04-26 09:07 | 24.57305 | 56.15331 | 23015 ft | 496 kts | 136° |
| 2026-04-26 09:07 | 24.55022 | 56.18145 | 23022 ft | 498 kts | 133° |
| 2026-04-26 09:08 | 24.52742 | 56.21046 | 23028 ft | 497 kts | 133° |
| 2026-04-26 09:08 | 24.50507 | 56.23896 | 23043 ft | 497 kts | 133° |
| 2026-04-26 09:08 | 24.48235 | 56.26790 | 23058 ft | 496 kts | 133° |
| 2026-04-26 09:08 | 24.45978 | 56.29661 | 23029 ft | 497 kts | 133° |
| 2026-04-26 09:09 | 24.43726 | 56.32527 | 23011 ft | 497 kts | 133° |
| 2026-04-26 09:09 | 24.41461 | 56.35406 | 22987 ft | 498 kts | 133° |
| 2026-04-26 09:09 | 24.39205 | 56.38271 | 22968 ft | 497 kts | 133° |
| 2026-04-26 09:09 | 24.36947 | 56.41138 | 22947 ft | 497 kts | 133° |
| 2026-04-26 09:10 | 24.34701 | 56.43987 | 22933 ft | 498 kts | 133° |
| 2026-04-26 09:10 | 24.32416 | 56.46884 | 22914 ft | 498 kts | 133° |
| 2026-04-26 09:10 | 24.30164 | 56.49737 | 22897 ft | 498 kts | 133° |
| 2026-04-26 09:10 | 24.27987 | 56.52674 | 22894 ft | 501 kts | 128° |
| 2026-04-26 09:11 | 24.25927 | 56.55814 | 22889 ft | 501 kts | 127° |
| 2026-04-26 09:11 | 24.23928 | 56.58882 | 22888 ft | 501 kts | 127° |
| 2026-04-26 09:11 | 24.21890 | 56.61997 | 22887 ft | 500 kts | 127° |
| 2026-04-26 09:11 | 24.19868 | 56.65074 | 22884 ft | 500 kts | 128° |
| 2026-04-26 09:12 | 24.17816 | 56.68189 | 22876 ft | 499 kts | 128° |
| 2026-04-26 09:12 | 24.15802 | 56.71237 | 22867 ft | 499 kts | 128° |
| 2026-04-26 09:12 | 24.13757 | 56.74324 | 22855 ft | 498 kts | 128° |
| 2026-04-26 09:12 | 24.11733 | 56.77376 | 22860 ft | 498 kts | 128° |
| 2026-04-26 09:13 | 24.09686 | 56.80456 | 22863 ft | 497 kts | 128° |
| 2026-04-26 09:13 | 24.07647 | 56.83521 | 22855 ft | 498 kts | 128° |
| 2026-04-26 09:13 | 24.05621 | 56.86563 | 22856 ft | 498 kts | 128° |
| 2026-04-26 09:13 | 24.03564 | 56.89646 | 22851 ft | 498 kts | 128° |
| 2026-04-26 09:14 | 24.01532 | 56.92690 | 22853 ft | 499 kts | 128° |
| 2026-04-26 09:14 | 23.99495 | 56.95735 | 22836 ft | 499 kts | 128° |
| 2026-04-26 09:14 | 23.97435 | 56.98813 | 22837 ft | 499 kts | 128° |
| 2026-04-26 09:14 | 23.95391 | 57.01865 | 22827 ft | 500 kts | 128° |
| 2026-04-26 09:15 | 23.93350 | 57.04910 | 22833 ft | 499 kts | 128° |
| 2026-04-26 09:15 | 23.91284 | 57.07990 | 22829 ft | 499 kts | 128° |
| 2026-04-26 09:15 | 23.89244 | 57.11031 | 22836 ft | 497 kts | 128° |
| 2026-04-26 09:15 | 23.87215 | 57.14053 | 22846 ft | 497 kts | 128° |
| 2026-04-26 09:16 | 23.85151 | 57.17125 | 22834 ft | 498 kts | 128° |
| 2026-04-26 09:16 | 23.83113 | 57.20158 | 22841 ft | 497 kts | 128° |
| 2026-04-26 09:16 | 23.81099 | 57.23153 | 22836 ft | 485 kts | 128° |
| 2026-04-26 09:16 | 23.79133 | 57.26076 | 22842 ft | 476 kts | 128° |
| 2026-04-26 09:17 | 23.77182 | 57.28974 | 22835 ft | 473 kts | 128° |
| 2026-04-26 09:17 | 23.75240 | 57.31856 | 22848 ft | 472 kts | 128° |
| 2026-04-26 09:17 | 23.73279 | 57.34764 | 22851 ft | 471 kts | 128° |
| 2026-04-26 09:17 | 23.71347 | 57.37628 | 22855 ft | 472 kts | 128° |
| 2026-04-26 09:18 | 23.69397 | 57.40517 | 22860 ft | 470 kts | 128° |
| 2026-04-26 09:18 | 23.67481 | 57.43356 | 22864 ft | 470 kts | 128° |
| 2026-04-26 09:18 | 23.65538 | 57.46233 | 22861 ft | 471 kts | 127° |
| 2026-04-26 09:18 | 23.63598 | 57.49107 | 22855 ft | 470 kts | 127° |
| 2026-04-26 09:19 | 23.61671 | 57.51960 | 22859 ft | 470 kts | 127° |
| 2026-04-26 09:19 | 23.59818 | 57.54939 | 22867 ft | 469 kts | 126° |
| 2026-04-26 09:19 | 23.57953 | 57.57820 | 22873 ft | 470 kts | 123° |
| 2026-04-26 09:19 | 23.56392 | 57.60979 | 22689 ft | 474 kts | 114° |
| 2026-04-26 09:20 | 23.55313 | 57.64333 | 22235 ft | 471 kts | 105° |
| 2026-04-26 09:20 | 23.54717 | 57.67818 | 21751 ft | 466 kts | 96° |
| 2026-04-26 09:20 | 23.54603 | 57.71299 | 21291 ft | 461 kts | 87° |
| 2026-04-26 09:20 | 23.54847 | 57.74783 | 20836 ft | 458 kts | 85° |
| 2026-04-26 09:21 | 23.55135 | 57.78202 | 20378 ft | 455 kts | 85° |
| 2026-04-26 09:21 | 23.55425 | 57.81639 | 19918 ft | 451 kts | 85° |
| 2026-04-26 09:21 | 23.55709 | 57.85010 | 19479 ft | 447 kts | 85° |
| 2026-04-26 09:21 | 23.55988 | 57.88325 | 19026 ft | 443 kts | 85° |
| 2026-04-26 09:22 | 23.56267 | 57.91645 | 18552 ft | 440 kts | 85° |
| 2026-04-26 09:22 | 23.56542 | 57.94938 | 18118 ft | 434 kts | 85° |
| 2026-04-26 09:22 | 23.56815 | 57.98201 | 17663 ft | 427 kts | 85° |
| 2026-04-26 09:22 | 23.57078 | 58.01367 | 17208 ft | 421 kts | 85° |
| 2026-04-26 09:23 | 23.57339 | 58.04505 | 16781 ft | 415 kts | 85° |
| 2026-04-26 09:23 | 23.57597 | 58.07615 | 16331 ft | 409 kts | 85° |
| 2026-04-26 09:23 | 23.57850 | 58.10675 | 15910 ft | 403 kts | 85° |
| 2026-04-26 09:23 | 23.58098 | 58.13681 | 15473 ft | 398 kts | 85° |
| 2026-04-26 09:24 | 23.58345 | 58.16676 | 14953 ft | 396 kts | 85° |
| 2026-04-26 09:24 | 23.58592 | 58.19683 | 13723 ft | 413 kts | 85° |
| 2026-04-26 09:24 | 23.58844 | 58.22763 | 12272 ft | 431 kts | 85° |
| 2026-04-26 09:24 | 23.59132 | 58.25929 | 11864 ft | 406 kts | 81° |
| 2026-04-26 09:25 | 23.59681 | 58.28876 | 10857 ft | 400 kts | 72° |
| 2026-04-26 09:25 | 23.60300 | 58.30716 | 10680 ft | 381 kts | 67° |
| 2026-04-26 09:26 | 23.64949 | 58.43507 | 8705 ft | 307 kts | 68° |
| 2026-04-26 09:26 | 23.65677 | 58.45651 | 8271 ft | 300 kts | 68° |
| 2026-04-26 09:27 | 23.66386 | 58.47764 | 7922 ft | 291 kts | 69° |
| 2026-04-26 09:27 | 23.67064 | 58.49794 | 7589 ft | 282 kts | 68° |
| 2026-04-26 09:27 | 23.67731 | 58.51791 | 7261 ft | 275 kts | 68° |
| 2026-04-26 09:27 | 23.68260 | 58.53751 | 6895 ft | 268 kts | 83° |
| 2026-04-26 09:28 | 23.68074 | 58.55718 | 6559 ft | 263 kts | 109° |
| 2026-04-26 09:28 | 23.67148 | 58.57391 | 6200 ft | 258 kts | 134° |
| 2026-04-26 09:28 | 23.65686 | 58.58453 | 5808 ft | 247 kts | 161° |
| 2026-04-26 09:28 | 23.64042 | 58.58714 | 5431 ft | 237 kts | 185° |
| 2026-04-26 09:29 | 23.62466 | 58.58238 | 4988 ft | 230 kts | 210° |
| 2026-04-26 09:29 | 23.61243 | 58.57175 | 4540 ft | 224 kts | 233° |
| 2026-04-26 09:29 | 23.60498 | 58.55736 | 4081 ft | 218 kts | 255° |
| 2026-04-26 09:29 | 23.60313 | 58.54129 | 3618 ft | 213 kts | 281° |
| 2026-04-26 09:30 | 23.60816 | 58.52674 | 3171 ft | 202 kts | 295° |
| 2026-04-26 09:30 | 23.61072 | 58.51208 | 2736 ft | 197 kts | 274° |
| 2026-04-26 09:30 | 23.61005 | 58.49723 | 2300 ft | 192 kts | 269° |
| 2026-04-26 09:30 | 23.60931 | 58.48780 | 2165 ft | 181 kts | 268° |
| 2026-04-26 09:31 | 23.60712 | 58.45608 | 2155 ft | 181 kts | 270° |
| 2026-04-26 09:31 | 23.60584 | 58.44240 | 2139 ft | 180 kts | 267° |
| 2026-04-26 09:31 | 23.60462 | 58.42947 | 2091 ft | 165 kts | 269° |
| 2026-04-26 09:32 | 23.60369 | 58.41726 | 1879 ft | 157 kts | 270° |
| 2026-04-26 09:32 | 23.60279 | 58.40552 | 1682 ft | 154 kts | 269° |
| 2026-04-26 09:32 | 23.60186 | 58.39404 | 1499 ft | 153 kts | 269° |
| 2026-04-26 09:32 | 23.60094 | 58.38259 | 1301 ft | 149 kts | 269° |
| 2026-04-26 09:33 | 23.60006 | 58.37138 | 1114 ft | 148 kts | 269° |
| 2026-04-26 09:33 | 23.59915 | 58.36020 | 899 ft | 146 kts | 269° |
| 2026-04-26 09:33 | 23.59828 | 58.34920 | 770 ft | 148 kts | 268° |
| 2026-04-26 09:33 | 23.59726 | 58.33822 | 533 ft | 142 kts | 269° |
| 2026-04-26 09:34 | 23.59643 | 58.32796 | 346 ft | 132 kts | 268° |
| 2026-04-26 09:34 | 23.59569 | 58.31777 | 231 ft | 146 kts | 270° |
| 2026-04-26 09:34 | 23.59483 | 58.30699 | 70 ft | 141 kts | 269° |
| 2026-04-26 09:34 | 23.59415 | 58.29752 | 47 ft | 94 kts | 265° |
| 2026-04-26 09:35 | 23.59383 | 58.29360 | 47 ft | 28 kts | 266° |
| 2026-04-26 09:35 | 23.59365 | 58.29127 | 48 ft | 29 kts | 264° |
| 2026-04-26 09:35 | 23.59348 | 58.28909 | 48 ft | 28 kts | 266° |
| 2026-04-26 09:35 | 23.59357 | 58.28741 | 48 ft | 19 kts | 283° |
| 2026-04-26 09:36 | 23.59406 | 58.28609 | 48 ft | 18 kts | 294° |
| 2026-04-26 09:36 | 23.59483 | 58.28533 | 48 ft | 14 kts | 352° |
| 2026-04-26 09:36 | 23.59579 | 58.28524 | 48 ft | 13 kts | 358° |
| 2026-04-26 09:36 | 23.59616 | 58.28569 | 48 ft | 7 kts | 85° |
| 2026-04-26 09:37 | 23.59621 | 58.28635 | 47 ft | 11 kts | 85° |
| 2026-04-26 09:37 | 23.59627 | 58.28729 | 48 ft | 12 kts | 86° |
| 2026-04-26 09:37 | 23.59635 | 58.28818 | 48 ft | 11 kts | 82° |
| 2026-04-26 09:37 | 23.59646 | 58.28899 | 48 ft | 10 kts | 68° |
| 2026-04-26 09:38 | 23.59698 | 58.28923 | 48 ft | 8 kts | 359° |
| 2026-04-26 09:38 | 23.59717 | 58.28921 | 48 ft | 7 kts | 355° |
| 2026-04-26 09:38 | 23.59736 | 58.28920 | 48 ft | 7 kts | 352° |
| 2026-04-26 09:39 | 23.59747 | 58.28915 | 48 ft | 5 kts | 323° |
| 2026-04-26 09:39 | 23.59763 | 58.28829 | 48 ft | 0 kts | 265° |